createdAt,value
2018-09-28T00:00:46.939Z,5.33
2018-09-28T00:05:51.130Z,7.37
2018-09-28T00:10:55.332Z,9.97
2018-09-28T00:15:59.506Z,6.03
2018-09-28T00:21:03.724Z,10.77
2018-09-28T00:26:08.059Z,7.53
2018-09-28T00:31:12.455Z,5.93
2018-09-28T00:36:16.666Z,5.97
2018-09-28T00:41:20.798Z,6.90
2018-09-28T00:46:24.999Z,9.10
2018-09-28T00:51:29.231Z,10.17
2018-09-28T00:56:33.438Z,6.80
2018-09-28T01:01:37.667Z,10.00
2018-09-28T01:06:41.908Z,8.80
2018-09-28T01:11:46.659Z,5.93
2018-09-28T01:16:51.797Z,10.53
2018-09-28T01:21:56.150Z,5.87
2018-09-28T01:27:00.351Z,6.47
2018-09-28T01:32:04.628Z,7.77
2018-09-28T01:37:08.999Z,6.67
2018-09-28T01:42:13.219Z,7.00
2018-09-28T01:47:17.759Z,7.93
2018-09-28T01:52:21.931Z,6.20
2018-09-28T01:57:26.440Z,7.37
2018-09-28T02:02:30.830Z,6.37
2018-09-28T02:07:35.065Z,5.47
2018-09-28T02:12:39.310Z,7.07
2018-09-28T02:17:43.595Z,8.17
2018-09-28T02:22:47.843Z,6.20
2018-09-28T02:27:52.061Z,7.40
2018-09-28T02:32:56.286Z,6.10
2018-09-28T02:38:00.434Z,5.83
2018-09-28T02:43:04.567Z,6.07
2018-09-28T02:48:08.825Z,6.77
2018-09-28T02:53:18.489Z,6.43
2018-09-28T02:58:22.612Z,6.10
2018-09-28T03:03:26.823Z,6.93
2018-09-28T03:08:30.951Z,6.30
2018-09-28T03:13:35.211Z,4.97
2018-09-28T03:18:39.403Z,8.20
2018-09-28T03:23:43.533Z,4.30
2018-09-28T03:28:48.249Z,7.83
2018-09-28T03:33:52.436Z,4.97
2018-09-28T03:38:56.669Z,6.50
2018-09-28T03:44:00.910Z,6.23
2018-09-28T03:49:05.512Z,5.77
2018-09-28T03:54:10.053Z,11.03
2018-09-28T03:59:14.321Z,7.40
2018-09-28T04:04:18.637Z,5.27
2018-09-28T04:09:23.293Z,5.33
2018-09-28T04:14:27.529Z,4.20
2018-09-28T04:19:31.876Z,5.83
2018-09-28T04:24:36.067Z,7.63
2018-09-28T04:29:40.303Z,5.33
2018-09-28T04:34:44.703Z,6.40
2018-09-28T04:39:48.982Z,7.03
2018-09-28T04:44:53.250Z,5.63
2018-09-28T04:49:57.578Z,6.93
2018-09-28T04:55:01.803Z,6.27
2018-09-28T05:00:05.999Z,5.83
2018-09-28T05:05:10.160Z,5.03
2018-09-28T05:10:14.698Z,7.93
2018-09-28T05:15:18.937Z,7.03
2018-09-28T05:20:23.139Z,6.83
2018-09-28T05:25:27.477Z,7.63
2018-09-28T05:30:31.590Z,5.30
2018-09-28T05:35:35.886Z,9.57
2018-09-28T05:40:40.816Z,9.40
2018-09-28T05:45:45.049Z,9.90
2018-09-28T05:50:49.419Z,12.07
2018-09-28T05:55:53.793Z,11.03
2018-09-28T06:01:03.482Z,12.53
2018-09-28T06:06:08.051Z,11.90
2018-09-28T06:11:13.379Z,11.00
2018-09-28T06:16:17.705Z,16.97
2018-09-28T06:21:21.920Z,12.57
2018-09-28T06:26:26.330Z,9.83
2018-09-28T06:31:30.634Z,13.20
2018-09-28T06:36:34.917Z,13.03
2018-09-28T06:41:39.303Z,13.57
2018-09-28T06:46:44.310Z,12.87
2018-09-28T06:51:48.718Z,17.57
2018-09-28T06:56:53.411Z,12.60
2018-09-28T07:01:58.020Z,14.10
2018-09-28T07:07:02.805Z,22.03
2018-09-28T07:12:07.231Z,17.77
2018-09-28T07:17:11.566Z,13.67
2018-09-28T07:22:16.184Z,12.73
2018-09-28T07:27:21.483Z,12.97
2018-09-28T07:32:26.127Z,17.17
2018-09-28T07:37:32.022Z,13.57
2018-09-28T07:42:36.722Z,16.53
2018-09-28T07:47:41.413Z,16.20
2018-09-28T07:52:46.299Z,14.37
2018-09-28T07:57:50.777Z,17.30
2018-09-28T08:02:55.123Z,20.23
2018-09-28T08:08:00.237Z,15.50
2018-09-28T08:13:05.295Z,17.17
2018-09-28T08:18:09.705Z,16.00
2018-09-28T08:23:14.129Z,20.20
2018-09-28T08:28:18.474Z,18.90
2018-09-28T08:33:22.835Z,18.80
2018-09-28T08:38:27.195Z,20.17
2018-09-28T08:43:31.918Z,19.63
2018-09-28T08:48:36.303Z,19.03
2018-09-28T08:53:40.545Z,22.27
2018-09-28T08:58:45.054Z,24.93
2018-09-28T09:03:49.490Z,24.37
2018-09-28T09:08:53.876Z,26.40
2018-09-28T09:13:58.444Z,24.93
2018-09-28T09:19:03.036Z,24.30
2018-09-28T09:24:07.689Z,25.47
2018-09-28T09:29:12.217Z,23.77
2018-09-28T09:34:16.594Z,26.30
2018-09-28T09:39:20.774Z,29.37
2018-09-28T09:44:25.342Z,26.10
2018-09-28T09:49:29.911Z,29.83
2018-09-28T09:54:34.258Z,26.27
2018-09-28T09:59:39.044Z,21.13
2018-09-28T10:04:45.164Z,23.97
2018-09-28T10:09:49.667Z,22.90
2018-09-28T10:14:54.375Z,18.63
2018-09-28T10:19:58.617Z,27.80
2018-09-28T10:25:03.159Z,22.43
2018-09-28T10:30:07.698Z,25.73
2018-09-28T10:35:12.906Z,27.13
2018-09-28T10:40:17.266Z,24.10
2018-09-28T10:45:21.568Z,23.20
2018-09-28T10:50:26.053Z,22.33
2018-09-28T10:55:30.371Z,25.23
2018-09-28T11:00:34.769Z,23.10
2018-09-28T11:05:39.222Z,19.87
2018-09-28T11:10:43.832Z,19.77
2018-09-28T11:15:48.006Z,16.73
2018-09-28T11:20:53.400Z,18.47
2018-09-28T11:25:59.185Z,11.47
2018-09-28T11:31:03.552Z,9.33
2018-09-28T11:36:08.439Z,9.47
2018-09-28T11:41:13.393Z,7.53
2018-09-28T11:46:18.014Z,7.57
2018-09-28T11:51:22.296Z,9.70
2018-09-28T11:56:26.787Z,6.03
2018-09-28T12:01:31.239Z,5.97
2018-09-28T12:06:36.897Z,7.57
2018-09-28T12:11:41.634Z,6.93
2018-09-28T12:16:46.023Z,6.57
2018-09-28T12:21:50.396Z,6.07
2018-09-28T12:26:54.634Z,6.33
2018-09-28T12:31:59.229Z,11.20
2018-09-28T12:37:09.769Z,9.20
2018-09-28T12:42:14.043Z,8.27
2018-09-28T12:47:18.288Z,8.93
2018-09-28T12:52:22.786Z,10.13
2018-09-28T12:57:27.405Z,9.27
2018-09-28T13:02:31.810Z,11.23
2018-09-28T13:07:36.294Z,9.00
2018-09-28T13:12:40.802Z,7.60
2018-09-28T13:17:45.178Z,7.63
2018-09-28T13:22:49.598Z,7.33
2018-09-28T13:27:53.962Z,7.73
2018-09-28T13:32:58.364Z,6.77
2018-09-28T13:38:02.902Z,7.00
2018-09-28T13:43:07.542Z,4.27
2018-09-28T13:48:13.981Z,8.13
2018-09-28T13:53:18.462Z,7.47
2018-09-28T13:58:23.790Z,9.70
2018-09-28T14:03:29.297Z,9.03
2018-09-28T14:08:34.021Z,6.67
2018-09-28T14:13:38.826Z,11.73
2018-09-28T14:18:43.631Z,8.20
2018-09-28T14:23:48.706Z,8.20
2018-09-28T14:28:53.300Z,11.10
2018-09-28T14:33:57.798Z,8.27
2018-09-28T14:39:02.227Z,7.57
2018-09-28T14:44:07.176Z,9.03
2018-09-28T14:49:12.387Z,11.23
2018-09-28T14:54:17.552Z,10.47
2018-09-28T15:00:51.416Z,10.20
2018-09-28T15:05:56.126Z,10.03
2018-09-28T15:11:01.297Z,7.80
2018-09-28T15:16:05.969Z,8.37
2018-09-28T15:21:10.378Z,7.80
2018-09-28T15:26:15.536Z,10.07
2018-09-28T15:32:49.486Z,5.30
2018-09-28T15:37:54.024Z,7.00
2018-09-28T15:42:58.308Z,7.50
2018-09-28T15:48:02.563Z,6.57
2018-09-28T15:53:06.934Z,8.40
2018-09-28T15:58:11.126Z,6.47
2018-09-28T16:03:16.475Z,6.23
2018-09-28T16:08:20.730Z,5.20
2018-09-28T16:13:25.044Z,4.43
2018-09-28T16:18:29.528Z,2.73
2018-09-28T16:23:34.652Z,6.53
2018-09-28T16:28:39.039Z,4.60
2018-09-28T16:33:43.559Z,6.07
2018-09-28T16:38:50.653Z,7.80
2018-09-28T16:43:55.014Z,6.87
2018-09-28T16:49:05.063Z,9.30
2018-09-28T16:54:09.380Z,5.73
2018-09-28T16:59:13.898Z,6.03
2018-09-28T17:04:18.378Z,6.03
2018-09-28T17:09:22.895Z,7.97
2018-09-28T17:14:27.120Z,6.47
2018-09-28T17:19:31.672Z,4.43
2018-09-28T17:24:36.280Z,4.27
2018-09-28T17:29:40.514Z,4.97
2018-09-28T17:34:45.662Z,8.03
2018-09-28T17:45:05.701Z,7.10
2018-09-28T17:50:10.104Z,7.23
2018-09-28T17:55:15.014Z,7.77
2018-09-28T18:00:19.654Z,6.47
2018-09-28T18:05:24.259Z,7.40
2018-09-28T18:10:29.192Z,8.67
2018-09-28T18:15:33.657Z,11.13
2018-09-28T18:20:42.933Z,9.17
2018-09-28T18:25:47.479Z,9.87
2018-09-28T18:30:52.129Z,8.63
2018-09-28T18:35:56.643Z,9.40
2018-09-28T18:41:06.630Z,12.63
2018-09-28T18:46:10.822Z,9.53
2018-09-28T18:51:15.308Z,12.80
2018-09-28T18:56:19.647Z,9.07
2018-09-28T19:01:23.861Z,12.60
2018-09-28T19:06:28.217Z,6.13
2018-09-28T19:11:32.740Z,10.57
2018-09-28T19:16:37.309Z,8.73
2018-09-28T19:21:42.712Z,12.13
2018-09-28T19:26:47.085Z,6.27
2018-09-28T19:31:51.737Z,15.97
2018-09-28T19:36:56.155Z,7.23
2018-09-28T19:42:00.507Z,7.57
2018-09-28T19:47:04.833Z,6.87
2018-09-28T19:52:09.321Z,7.00
2018-09-28T19:57:14.710Z,8.03
2018-09-28T20:02:19.665Z,10.97
2018-09-28T20:07:24.121Z,10.53
2018-09-28T20:12:28.537Z,10.30
2018-09-28T20:17:33.256Z,9.53
2018-09-28T20:22:38.052Z,8.87
2018-09-28T20:27:42.984Z,7.77
2018-09-28T20:32:47.539Z,8.63
2018-09-28T20:37:52.124Z,7.73
2018-09-28T20:42:56.968Z,13.27
2018-09-28T20:48:01.567Z,10.13
2018-09-28T20:53:06.256Z,6.17
2018-09-28T20:58:10.744Z,6.70
2018-09-28T21:03:15.160Z,6.63
2018-09-28T21:08:19.553Z,10.60
2018-09-28T21:13:23.864Z,10.10
2018-09-28T21:18:28.180Z,7.67
2018-09-28T21:23:32.550Z,13.30
2018-09-28T21:28:36.848Z,8.60
2018-09-28T21:33:41.135Z,13.53
2018-09-28T21:38:45.493Z,9.03
2018-09-28T21:43:49.722Z,7.50
2018-09-28T21:48:53.994Z,10.93
2018-09-28T21:53:58.272Z,13.53
2018-09-28T21:59:02.623Z,10.60
2018-09-28T22:04:06.903Z,8.13
2018-09-28T22:09:11.301Z,10.13
2018-09-28T22:14:15.746Z,9.07
2018-09-28T22:19:19.981Z,10.83
2018-09-28T22:24:24.996Z,10.13
2018-09-28T22:29:30.163Z,9.30
2018-09-28T22:34:36.120Z,10.73
2018-09-28T22:39:40.673Z,7.70
2018-09-28T22:44:44.825Z,7.93
2018-09-28T22:49:54.195Z,9.13
2018-09-28T22:54:58.515Z,9.43
2018-09-28T23:00:03.057Z,7.03
2018-09-28T23:05:07.788Z,8.40
2018-09-28T23:10:12.047Z,8.47
2018-09-28T23:15:16.373Z,6.03
2018-09-28T23:20:20.655Z,13.13
2018-09-28T23:25:24.930Z,7.00
2018-09-28T23:30:29.155Z,6.50
2018-09-28T23:35:33.295Z,8.80
2018-09-28T23:40:37.543Z,9.60
2018-09-28T23:45:41.837Z,12.67
2018-09-28T23:50:46.373Z,6.87
2018-09-28T23:55:50.467Z,6.07
